Cataratas International Airport
SBFI : now visible

Airfield :











YOU CAN JOIN US ON...

 
LOGIN :

Register | Disclaimer

   EN    FR    IT 

 









Legend :    VFR   Marginal VFR   IFR   Intensive IFR   Very Intensive IFR
Visi :
Ceiling :
>= 8 km
>= 3000ft
5 to 8 km
1000 to 3000 ft
1500m to 5 km
500 to 1000 ft
800 to 1500m
200 to 500 ft
< 800m
< 200 ft
Symbols :   Thunderstorms  Fog  Heavy snow  Heavy precipitations  Wind > 20 kt






- Airport Elevation : 786 ft
- IATA code : IGU


SBFI - Cataratas International

CURRENT METAR :
  • 050300Z 09011KT 9999 FEW006 SCT045 OVC070 19/18 Q1018

EXPIRED METARs :
  • 050200Z 09009KT 9999 SCT005 BKN045 19/18 Q1019
  • 050100Z 07007KT 9999 OVC005 19/19 Q1019 RERA

TAF TAF SBFI
Valid from the 05 at 00:00 until the 06 at 00:00 UTC


042100Z 0500/0524 07008KT 8000 RA BKN028 TN13/0509Z TX20/0516Z
BECMG 0501/0503 04005KT 9999 NSW BKN012
BECMG 0508/0510 8000 RA BKN007
BECMG 0512/0514 04008KT 9999 NSW SCT016
BECMG 0516/0518 25008KT 6000 TSRA BKN016 FEW028CB
BECMG 0521/0523 8000 RA BKN012 FEW028TCU RMK PDL
SBCW FIR / South America



MET'MAP, your aeronautical weather chart ! - Copyright ORBIFLY December 2007 - Disclaimer

ORBIFLY MET'MAP TEAM :

Programming & Development : Alexandra Zaïnal
Concept & original design : Baudouin d'Aumeries
Assistance for programming : Marc-Olivier Méhu
Technical & hardware support : Manuel Goepfert

Contact : metmap@orbifly.com




SOURCES & CREDITS :

   NOAA       Earth
Advisory